• Join FlightAware (Why Join?)
  • Login
  • US Flag GB Flag 
10:38 EDT


 

Airport Tracker/Info


-or-


 

Live Flight TrackerFlight Track Log ✈ DAL6234 ✈ 16-Apr-2013 ✈ KLGA - KSYR

Flight Track Log - Related Links

Times and Time Zones

All times are in EDT time to prevent confusion due to time zone crossing. See the DAL6234 flight status page for this flight to view local times or setup timezone preferences in your user account.

Time Position Orientation Groundspeed Altitude Reporting Facility
EDT Latitude Longitude Course Direction KTS MPH feet Rate Location/Type
15:49 40.7667 -73.8500 159° South 139 160 1,200  Level New York TRACON
15:50 40.7333 -73.8333 159° South 181 208 2,800 2,100 Climbing New York TRACON
15:51 40.7667 -73.7667 57° Northeast 250 288 5,200 1,800 Climbing New York TRACON
15:53 40.9061 -73.7994 350° North 256 295 8,900 1,620 Climbing New York Center
15:54 40.9714 -73.8572 326° Northwest 256 295 10,700 1,500 Climbing New York Center
15:55 41.0133 -73.9253 309° West 262 302 12,000 1,980 Climbing New York Center
15:56 41.0561 -74.0344 297° West 290 334 14,700 1,980 Climbing New York Center
15:57 41.0883 -74.1433 291° West 311 358 16,000 660 Climbing New York Center
15:58 41.1247 -74.2528 294° West 324 373 16,000 -60 Level New York Center
15:59 41.1592 -74.3592 293° West 324 373 15,900 -60 Descending New York Center
16:00 41.1894 -74.4544 293° West 319 367 15,900  Level New York Center
16:01 41.2256 -74.5642 294° West 313 360 16,000 300 Climbing New York Center
16:02 41.2708 -74.6467 306° West 308 354 16,600 1,020 Climbing New York Center
16:03 41.3342 -74.7497 309° West 325 374 18,100 1,440 Climbing New York Center
16:04 41.3892 -74.8414 309° West 342 394 19,600 1,680 Climbing New York Center
16:05 41.4544 -74.9422 311° West 349 402 21,500 1,200 Climbing New York Center
16:06 41.5194 -75.0461 310° West 349 402 22,000 240 Climbing New York Center
16:07 41.5783 -75.1442 309° West 349 402 22,000  Level New York Center
16:08 41.6372 -75.2397 310° West 344 396 22,000  Level New York Center
16:09 41.6958 -75.3408 308° West 344 396 22,000  Level New York Center
16:10 41.7564 -75.4422 309° West 344 396 22,000  Level New York Center
16:11 41.8169 -75.5467 308° West 344 396 22,000  Level New York Center
16:12 41.8772 -75.6511 308° West 350 403 22,000 -480 Level New York Center
16:13 41.9375 -75.7533 308° West 355 409 21,100 -1,020 Descending New York Center
16:14 41.9978 -75.8556 308° West 355 409 20,000 -1,140 Descending New York Center
16:15 42.0461 -75.9431 307° West 344 396 18,900 -1,140 Descending New York Center
16:16 42.1022 -76.0394 308° West 320 368 17,800 -1,800 Descending New York Center
16:17 42.1650 -76.1258 314° West 304 350 15,300 -2,580 Descending New York Center
16:18 42.2583 -76.1278 359° North 283 326 12,800 -2,400 Descending New York Center
16:19 42.3197 -76.1217 North 352 405 11,400 -1,140 Descending Boston Center
16:20 42.4097 -76.1100 North 316 364 11,000 -240 Descending Boston Center
16:21 42.4894 -76.0981 North 284 327 11,000 -60 Level Boston Center
16:22 42.5772 -76.0889 North 316 364 10,900 -720 Descending Boston Center
16:23 42.6528 -76.0736 North 299 344 9,700 -1,620 Descending Boston Center
16:24 42.7450 -76.0622 North 282 325 7,700 -1,740 Descending Boston Center
16:25 42.8203 -76.0553 North 270 311 6,100 -1,320 Descending Boston Center
16:26 42.8956 -76.0456 North 267 307 5,100 -1,020 Descending Boston Center
16:27 42.9708 -76.0442 North 276 318 4,100 -1,200 Descending Boston Center
16:28 43.0408 -76.0028 23° Northeast 279 321 2,800 -1,020 Descending Boston Center
16:29 43.1017 -75.9892 North 197 227 2,100 -780 Descending Boston Center
16:30 43.1106 -76.0411 283° West 106 122 1,300 -840 Descending Boston Center